createdAt,value
2024-04-14T00:00:57.865Z,47.11
2024-04-14T00:03:44.197Z,47.14
2024-04-14T00:06:31.406Z,47.09
2024-04-14T00:09:17.498Z,47.02
2024-04-14T00:12:03.981Z,47.12
2024-04-14T00:14:50.891Z,47.44
2024-04-14T00:17:38.191Z,47.22
2024-04-14T00:20:26.109Z,47.11
2024-04-14T00:23:12.878Z,47.01
2024-04-14T00:25:58.992Z,46.95
2024-04-14T00:28:46.366Z,47.39
2024-04-14T00:31:34.067Z,46.96
2024-04-14T00:34:22.621Z,47.26
2024-04-14T00:37:08.842Z,47.23
2024-04-14T00:39:55.002Z,47.12
2024-04-14T00:42:41.835Z,47.29
2024-04-14T00:45:29.091Z,47.18
2024-04-14T00:48:15.634Z,47.31
2024-04-14T00:51:04.802Z,47.47
2024-04-14T00:53:51.629Z,47.62
2024-04-14T00:56:37.959Z,47.68
2024-04-14T00:59:24.038Z,47.57
2024-04-14T01:02:10.091Z,47.75
2024-04-14T01:04:56.749Z,47.69
2024-04-14T01:07:43.357Z,47.53
2024-04-14T01:10:31.085Z,47.63
2024-04-14T01:13:17.549Z,47.90
2024-04-14T01:16:04.542Z,47.49
2024-04-14T01:18:51.352Z,47.65
2024-04-14T01:21:38.121Z,47.81
2024-04-14T01:24:24.802Z,47.39
2024-04-14T01:27:14.069Z,48.13
2024-04-14T01:30:08.864Z,47.68
2024-04-14T01:32:55.319Z,47.80
2024-04-14T01:35:41.822Z,47.75
2024-04-14T01:38:28.310Z,47.87
2024-04-14T01:41:14.487Z,47.74
2024-04-14T01:44:01.086Z,47.92
2024-04-14T01:46:47.738Z,47.88
2024-04-14T01:49:33.852Z,47.92
2024-04-14T01:52:20.547Z,47.80
2024-04-14T01:55:07.040Z,47.76
2024-04-14T01:57:53.455Z,48.08
2024-04-14T02:00:40.102Z,48.04
2024-04-14T02:03:26.932Z,47.88
2024-04-14T02:06:13.330Z,47.79
2024-04-14T02:08:59.599Z,48.10
2024-04-14T02:11:46.046Z,47.69
2024-04-14T02:14:32.474Z,48.20
2024-04-14T02:17:19.250Z,48.36
2024-04-14T02:20:06.035Z,48.34
2024-04-14T02:22:52.971Z,48.09
2024-04-14T02:25:40.287Z,48.39
2024-04-14T02:28:27.197Z,48.33
2024-04-14T02:31:13.595Z,48.42
2024-04-14T02:33:59.923Z,48.09
2024-04-14T02:36:46.549Z,48.25
2024-04-14T02:39:34.061Z,48.45
2024-04-14T02:42:20.190Z,48.09
2024-04-14T02:45:06.637Z,48.43
2024-04-14T02:47:52.911Z,48.36
2024-04-14T02:50:39.597Z,48.53
2024-04-14T02:53:27.054Z,48.38
2024-04-14T02:56:13.228Z,48.25
2024-04-14T02:58:59.245Z,48.50
2024-04-14T03:01:46.871Z,48.60
2024-04-14T03:04:33.155Z,48.33
2024-04-14T03:07:19.529Z,48.41
2024-04-14T03:10:06.253Z,48.19
2024-04-14T03:12:52.794Z,48.32
2024-04-14T03:15:38.989Z,48.48
2024-04-14T03:18:25.591Z,48.67
2024-04-14T03:21:11.499Z,48.51
2024-04-14T03:23:57.723Z,48.30
2024-04-14T03:26:46.265Z,48.49
2024-04-14T03:29:32.267Z,48.28
2024-04-14T03:32:18.715Z,48.63
2024-04-14T03:35:06.226Z,48.25
2024-04-14T03:37:52.625Z,48.78
2024-04-14T03:40:38.615Z,48.83
2024-04-14T03:43:25.909Z,48.29
2024-04-14T03:46:12.012Z,48.43
2024-04-14T03:48:58.778Z,48.58
2024-04-14T03:51:45.348Z,48.48
2024-04-14T03:54:31.876Z,48.68
2024-04-14T03:57:18.098Z,48.80
2024-04-14T04:00:05.573Z,48.67
2024-04-14T04:03:00.967Z,48.61
2024-04-14T04:05:55.530Z,48.80
2024-04-14T04:08:41.561Z,49.01
2024-04-14T04:11:30.287Z,48.87
2024-04-14T04:14:16.611Z,48.98
2024-04-14T04:17:03.394Z,48.96
2024-04-14T04:19:49.679Z,49.29
2024-04-14T04:22:36.103Z,49.14
2024-04-14T04:25:22.185Z,49.21
2024-04-14T04:28:08.038Z,49.05
2024-04-14T04:30:55.136Z,48.96
2024-04-14T04:33:41.550Z,49.00
2024-04-14T04:36:27.772Z,49.03
2024-04-14T04:39:14.302Z,49.10
2024-04-14T04:42:00.550Z,49.15
2024-04-14T04:44:48.205Z,49.02
2024-04-14T04:47:34.746Z,49.15
2024-04-14T04:50:21.158Z,49.04
2024-04-14T04:53:07.373Z,49.06
2024-04-14T04:55:54.613Z,49.14
2024-04-14T04:58:40.896Z,49.08
2024-04-14T05:01:27.500Z,49.28
2024-04-14T05:04:13.942Z,48.88
2024-04-14T05:07:00.767Z,49.07
2024-04-14T05:09:47.002Z,49.20
2024-04-14T05:12:33.745Z,48.97
2024-04-14T05:15:19.767Z,48.98
2024-04-14T05:18:06.040Z,48.89
2024-04-14T05:20:52.650Z,49.10
2024-04-14T05:23:38.700Z,48.62
2024-04-14T05:26:24.624Z,48.61
2024-04-14T05:29:10.817Z,48.84
2024-04-14T05:31:56.723Z,48.45
2024-04-14T05:34:43.969Z,48.89
2024-04-14T05:37:30.291Z,48.76
2024-04-14T05:40:16.460Z,48.47
2024-04-14T05:43:02.600Z,48.56
2024-04-14T05:45:49.124Z,48.52
2024-04-14T05:48:35.357Z,48.51
2024-04-14T05:51:22.058Z,48.18
2024-04-14T05:54:08.117Z,48.32
2024-04-14T05:56:54.083Z,48.25
2024-04-14T05:59:40.273Z,48.10
2024-04-14T06:02:26.330Z,48.00
2024-04-14T06:05:12.921Z,47.89
2024-04-14T06:07:58.919Z,47.76
2024-04-14T06:10:44.829Z,47.73
2024-04-14T06:13:31.549Z,47.47
2024-04-14T06:16:17.908Z,47.60
2024-04-14T06:19:04.230Z,47.31
2024-04-14T06:21:50.843Z,47.49
2024-04-14T06:24:37.450Z,47.38
2024-04-14T06:27:23.674Z,47.40
2024-04-14T06:30:11.043Z,47.46
2024-04-14T06:32:57.097Z,47.01
2024-04-14T06:35:43.468Z,47.07
2024-04-14T06:38:31.409Z,46.94
2024-04-14T06:41:18.025Z,46.71
2024-04-14T06:44:04.164Z,46.54
2024-04-14T06:46:50.210Z,46.67
2024-04-14T06:49:36.873Z,46.43
2024-04-14T06:52:22.959Z,46.48
2024-04-14T06:55:12.918Z,46.63
2024-04-14T06:57:59.294Z,46.31
2024-04-14T07:00:46.148Z,46.17
2024-04-14T07:03:32.345Z,46.05
2024-04-14T07:06:19.075Z,46.10
2024-04-14T07:09:05.148Z,45.99
2024-04-14T07:11:51.339Z,45.83
2024-04-14T07:14:37.869Z,45.72
2024-04-14T07:17:24.078Z,45.75
2024-04-14T07:20:10.563Z,45.53
2024-04-14T07:22:57.452Z,45.66
2024-04-14T07:25:43.709Z,45.34
2024-04-14T07:28:29.922Z,44.97
2024-04-14T07:31:16.637Z,45.17
2024-04-14T07:34:04.861Z,44.89
2024-04-14T07:36:51.211Z,44.90
2024-04-14T07:39:37.907Z,44.88
2024-04-14T07:42:24.434Z,44.49
2024-04-14T07:45:12.134Z,44.82
2024-04-14T07:47:58.378Z,44.29
2024-04-14T07:50:45.888Z,44.57
2024-04-14T07:53:32.648Z,44.23
2024-04-14T07:56:19.052Z,44.28
2024-04-14T07:59:06.157Z,44.60
2024-04-14T08:01:52.450Z,44.32
2024-04-14T08:04:39.238Z,43.93
2024-04-14T08:07:25.750Z,43.91
2024-04-14T08:10:11.724Z,44.13
2024-04-14T08:12:58.483Z,43.74
2024-04-14T08:15:44.882Z,44.12
2024-04-14T08:18:30.850Z,43.54
2024-04-14T08:21:17.092Z,44.15
2024-04-14T08:24:03.954Z,43.99
2024-04-14T08:26:49.997Z,43.75
2024-04-14T08:29:36.075Z,43.83
2024-04-14T08:32:22.017Z,43.65
2024-04-14T08:35:08.152Z,43.55
2024-04-14T08:37:55.764Z,43.44
2024-04-14T08:40:42.031Z,43.23
2024-04-14T08:43:28.523Z,43.03
2024-04-14T08:46:17.613Z,42.94
2024-04-14T08:49:04.284Z,42.87
2024-04-14T08:51:51.148Z,43.11
2024-04-14T08:54:37.973Z,42.73
2024-04-14T08:57:28.258Z,42.60
2024-04-14T09:00:16.579Z,42.39
2024-04-14T09:03:03.501Z,42.59
2024-04-14T09:05:49.919Z,42.65
2024-04-14T09:08:35.826Z,42.33
2024-04-14T09:11:22.341Z,42.39
2024-04-14T09:14:08.587Z,42.41
2024-04-14T09:16:54.750Z,42.03
2024-04-14T09:19:44.359Z,42.26
2024-04-14T09:22:30.523Z,42.05
2024-04-14T09:25:19.729Z,42.12
2024-04-14T09:28:09.074Z,41.94
2024-04-14T09:30:55.238Z,41.71
2024-04-14T09:33:42.036Z,41.55
2024-04-14T09:36:28.823Z,41.71
2024-04-14T09:39:15.545Z,41.51
2024-04-14T09:42:02.283Z,41.44
2024-04-14T09:44:49.945Z,41.36
2024-04-14T09:47:38.356Z,41.55
2024-04-14T09:50:25.289Z,41.57
2024-04-14T09:53:12.208Z,41.41
2024-04-14T09:55:59.210Z,41.21
2024-04-14T09:58:45.560Z,41.38
2024-04-14T10:01:35.638Z,41.38
2024-04-14T10:04:22.201Z,41.12
2024-04-14T10:07:08.981Z,40.99
2024-04-14T10:09:57.363Z,40.78
2024-04-14T10:12:43.845Z,40.52
2024-04-14T10:15:30.587Z,41.21
2024-04-14T10:18:17.334Z,40.57
2024-04-14T10:21:04.782Z,40.61
2024-04-14T10:23:54.469Z,40.70
2024-04-14T10:26:41.066Z,40.70
2024-04-14T10:29:27.748Z,40.44
2024-04-14T10:32:14.599Z,40.58
2024-04-14T10:35:00.921Z,40.42
2024-04-14T10:37:55.179Z,40.03
2024-04-14T10:40:41.647Z,40.38
2024-04-14T10:43:28.192Z,40.30
2024-04-14T10:46:14.820Z,40.08
2024-04-14T10:49:01.604Z,40.09
2024-04-14T10:51:49.400Z,39.71
2024-04-14T10:54:39.992Z,40.02
2024-04-14T10:57:26.363Z,40.06
2024-04-14T11:00:13.090Z,39.83
2024-04-14T11:03:00.103Z,39.87
2024-04-14T11:05:46.573Z,39.97
2024-04-14T11:08:34.874Z,39.83
2024-04-14T11:11:21.176Z,39.48
2024-04-14T11:14:07.206Z,39.47
2024-04-14T11:16:53.379Z,39.78
2024-04-14T11:19:40.100Z,39.51
2024-04-14T11:22:26.174Z,39.69
2024-04-14T11:25:12.519Z,39.38
2024-04-14T11:28:01.724Z,39.41
2024-04-14T11:30:48.695Z,38.73
2024-04-14T11:33:35.686Z,39.16
2024-04-14T11:36:22.262Z,38.75
2024-04-14T11:39:08.546Z,38.87
2024-04-14T11:41:54.857Z,38.70
2024-04-14T11:44:40.988Z,38.72
2024-04-14T11:47:28.221Z,38.74
2024-04-14T11:50:14.816Z,38.57
2024-04-14T11:53:00.950Z,38.78
2024-04-14T11:55:47.457Z,38.70
2024-04-14T11:58:33.279Z,38.42
2024-04-14T12:01:19.914Z,38.31
2024-04-14T12:04:06.221Z,38.25
2024-04-14T12:06:52.748Z,38.27
2024-04-14T12:09:39.435Z,38.13
2024-04-14T12:12:25.439Z,38.16
2024-04-14T12:15:11.884Z,38.33
2024-04-14T12:17:58.789Z,37.99
2024-04-14T12:20:45.323Z,37.80
2024-04-14T12:23:31.495Z,37.80
2024-04-14T12:26:18.170Z,38.00
2024-04-14T12:29:04.286Z,37.68
2024-04-14T12:31:51.086Z,37.99
2024-04-14T12:34:37.302Z,37.53
2024-04-14T12:37:23.897Z,37.61
2024-04-14T12:40:11.379Z,37.66
2024-04-14T12:42:59.081Z,37.80
2024-04-14T12:45:49.751Z,37.35
2024-04-14T12:48:36.162Z,37.36
2024-04-14T12:51:22.484Z,37.07
2024-04-14T12:54:11.269Z,37.07
2024-04-14T12:56:57.967Z,36.87
2024-04-14T12:59:44.165Z,36.89
2024-04-14T13:02:30.569Z,37.00
2024-04-14T13:05:17.233Z,36.71
2024-04-14T13:08:03.320Z,36.81
2024-04-14T13:10:49.481Z,36.52
2024-04-14T13:13:35.558Z,36.48
2024-04-14T13:16:22.403Z,36.40
2024-04-14T13:19:08.899Z,36.25
2024-04-14T13:21:54.938Z,36.24
2024-04-14T13:24:41.074Z,36.21
2024-04-14T13:27:27.674Z,36.51
2024-04-14T13:30:13.956Z,35.99
2024-04-14T13:33:01.847Z,36.04
2024-04-14T13:35:48.468Z,35.76
2024-04-14T13:38:35.357Z,35.68
2024-04-14T13:41:21.543Z,35.12
2024-04-14T13:44:08.004Z,35.24
2024-04-14T13:46:54.129Z,35.13
2024-04-14T13:49:41.040Z,35.12
2024-04-14T13:52:29.737Z,34.92
2024-04-14T13:55:16.893Z,34.96
2024-04-14T13:58:04.260Z,34.83
2024-04-14T14:00:50.831Z,34.79
2024-04-14T14:03:37.223Z,34.67
2024-04-14T14:06:23.373Z,34.31
2024-04-14T14:09:12.756Z,34.54
2024-04-14T14:11:59.761Z,34.42
2024-04-14T14:14:46.067Z,34.20
2024-04-14T14:17:32.724Z,34.02
2024-04-14T14:20:18.845Z,34.13
2024-04-14T14:23:05.474Z,34.06
2024-04-14T14:25:51.873Z,33.87
2024-04-14T14:28:38.662Z,33.63
2024-04-14T14:31:25.079Z,33.61
2024-04-14T14:34:29.932Z,33.71
2024-04-14T14:37:16.715Z,33.43
2024-04-14T14:40:02.961Z,33.49
2024-04-14T14:42:49.587Z,33.37
2024-04-14T14:45:36.160Z,33.47
2024-04-14T14:48:22.896Z,33.28
2024-04-14T14:51:09.432Z,33.34
2024-04-14T14:53:56.287Z,33.07
2024-04-14T14:56:42.633Z,32.96
2024-04-14T14:59:31.771Z,33.01
2024-04-14T15:02:18.591Z,32.92
2024-04-14T15:05:05.645Z,32.76
2024-04-14T15:07:52.311Z,32.66
2024-04-14T15:10:45.161Z,32.74
2024-04-14T15:13:32.690Z,32.24
2024-04-14T15:16:19.045Z,32.60
2024-04-14T15:19:05.428Z,32.82
2024-04-14T15:21:51.998Z,32.76
2024-04-14T15:24:40.450Z,32.73
2024-04-14T15:27:26.640Z,32.62
2024-04-14T15:30:13.127Z,32.04
2024-04-14T15:32:59.530Z,31.93
2024-04-14T15:35:46.118Z,32.22
2024-04-14T15:38:35.562Z,32.06
2024-04-14T15:41:22.082Z,31.82
2024-04-14T15:44:15.090Z,31.76
2024-04-14T15:47:08.538Z,31.45
2024-04-14T15:49:55.246Z,31.33
2024-04-14T15:52:41.687Z,31.45
2024-04-14T15:55:29.710Z,31.37
2024-04-14T15:58:16.786Z,31.40
2024-04-14T16:01:04.068Z,31.23
2024-04-14T16:03:52.169Z,31.48
2024-04-14T16:06:38.754Z,31.64
2024-04-14T16:09:27.542Z,31.41
2024-04-14T16:12:14.882Z,31.59
2024-04-14T16:15:01.157Z,31.52
2024-04-14T16:17:47.793Z,31.65
2024-04-14T16:20:34.587Z,31.81
2024-04-14T16:23:21.015Z,31.88
2024-04-14T16:26:08.271Z,31.96
2024-04-14T16:28:55.459Z,32.20
2024-04-14T16:31:41.820Z,32.02
2024-04-14T16:34:28.046Z,32.21
2024-04-14T16:37:14.237Z,32.02
2024-04-14T16:40:01.554Z,32.04
2024-04-14T16:42:49.938Z,32.12
2024-04-14T16:45:36.616Z,32.34
2024-04-14T16:48:23.744Z,32.51
2024-04-14T16:51:10.920Z,32.64
2024-04-14T16:53:57.801Z,32.20
2024-04-14T16:56:43.992Z,32.51
2024-04-14T16:59:31.882Z,32.70
2024-04-14T17:02:18.466Z,32.71
2024-04-14T17:05:05.231Z,32.78
2024-04-14T17:07:52.401Z,32.87
2024-04-14T17:10:40.356Z,32.80
2024-04-14T17:13:26.582Z,33.14
2024-04-14T17:16:13.549Z,33.04
2024-04-14T17:18:59.987Z,33.07
2024-04-14T17:21:46.598Z,33.35
2024-04-14T17:24:33.424Z,33.09
2024-04-14T17:27:19.716Z,33.31
2024-04-14T17:30:06.405Z,33.28
2024-04-14T17:32:53.340Z,33.31
2024-04-14T17:35:39.794Z,33.43
2024-04-14T17:38:26.263Z,33.74
2024-04-14T17:41:12.528Z,33.54
2024-04-14T17:43:59.234Z,33.58
2024-04-14T17:46:47.800Z,33.51
2024-04-14T17:49:34.730Z,33.72
2024-04-14T17:52:21.401Z,34.02
2024-04-14T17:55:07.862Z,33.93
2024-04-14T17:57:54.450Z,34.10
2024-04-14T18:00:41.090Z,34.31
2024-04-14T18:03:28.035Z,34.33
2024-04-14T18:06:14.533Z,34.33
2024-04-14T18:09:01.772Z,34.06
2024-04-14T18:11:53.416Z,34.31
2024-04-14T18:14:39.832Z,34.10
2024-04-14T18:17:26.042Z,34.53
2024-04-14T18:20:13.033Z,34.41
2024-04-14T18:23:04.114Z,34.36
2024-04-14T18:25:50.364Z,34.31
2024-04-14T18:28:37.052Z,34.72
2024-04-14T18:31:23.817Z,34.63
2024-04-14T18:34:10.241Z,34.47
2024-04-14T18:36:57.187Z,34.71
2024-04-14T18:39:43.888Z,35.02
2024-04-14T18:42:30.123Z,34.87
2024-04-14T18:45:16.810Z,35.18
2024-04-14T18:48:03.243Z,35.42
2024-04-14T18:50:49.772Z,35.48
2024-04-14T18:53:36.766Z,35.32
2024-04-14T18:56:23.351Z,35.62
2024-04-14T18:59:09.730Z,35.71
2024-04-14T19:01:55.770Z,35.81
2024-04-14T19:04:42.370Z,35.82
2024-04-14T19:07:28.305Z,36.00
2024-04-14T19:10:15.801Z,36.29
2024-04-14T19:13:02.125Z,36.09
2024-04-14T19:15:48.824Z,36.21
2024-04-14T19:18:35.914Z,36.39
2024-04-14T19:21:22.770Z,36.13
2024-04-14T19:24:09.394Z,36.62
2024-04-14T19:26:57.018Z,36.78
2024-04-14T19:29:43.277Z,36.51
2024-04-14T19:32:29.595Z,36.75
2024-04-14T19:35:16.170Z,36.93
2024-04-14T19:38:02.506Z,36.97
2024-04-14T19:40:48.684Z,37.19
2024-04-14T19:43:35.376Z,37.12
2024-04-14T19:46:21.766Z,37.22
2024-04-14T19:49:09.892Z,37.31
2024-04-14T19:51:56.351Z,37.26
2024-04-14T19:54:42.757Z,37.35
2024-04-14T19:57:30.033Z,37.51
2024-04-14T20:00:16.621Z,37.63
2024-04-14T20:03:03.779Z,37.54
2024-04-14T20:05:49.834Z,37.84
2024-04-14T20:08:36.741Z,37.89
2024-04-14T20:11:23.379Z,37.99
2024-04-14T20:14:10.088Z,38.09
2024-04-14T20:16:56.367Z,38.05
2024-04-14T20:19:43.134Z,37.85
2024-04-14T20:22:29.277Z,38.45
2024-04-14T20:25:16.302Z,38.41
2024-04-14T20:28:03.255Z,38.36
2024-04-14T20:30:50.049Z,38.52
2024-04-14T20:33:36.513Z,38.44
2024-04-14T20:36:23.230Z,38.58
2024-04-14T20:39:15.002Z,38.74
2024-04-14T20:42:01.070Z,39.05
2024-04-14T20:44:47.782Z,38.64
2024-04-14T20:47:34.418Z,39.04
2024-04-14T20:50:20.906Z,38.65
2024-04-14T20:53:07.570Z,39.20
2024-04-14T20:55:56.749Z,39.07
2024-04-14T20:58:43.461Z,39.44
2024-04-14T21:01:29.957Z,39.49
2024-04-14T21:04:16.749Z,39.42
2024-04-14T21:07:05.506Z,39.32
2024-04-14T21:09:51.801Z,39.71
2024-04-14T21:12:38.891Z,39.59
2024-04-14T21:15:25.252Z,39.39
2024-04-14T21:18:11.459Z,39.83
2024-04-14T21:20:58.020Z,39.83
2024-04-14T21:23:44.206Z,39.77
2024-04-14T21:26:30.181Z,39.81
2024-04-14T21:29:18.379Z,39.72
2024-04-14T21:32:06.018Z,40.00
2024-04-14T21:34:52.443Z,40.21
2024-04-14T21:37:39.894Z,40.05
2024-04-14T21:40:26.376Z,39.88
2024-04-14T21:43:13.197Z,40.14
2024-04-14T21:46:01.545Z,40.27
2024-04-14T21:48:48.015Z,40.04
2024-04-14T21:51:34.488Z,40.35
2024-04-14T21:54:22.631Z,40.46
2024-04-14T21:57:08.826Z,40.28
2024-04-14T21:59:55.681Z,40.50
2024-04-14T22:02:41.614Z,40.93
2024-04-14T22:05:27.834Z,40.66
2024-04-14T22:08:14.003Z,40.99
2024-04-14T22:11:00.727Z,41.18
2024-04-14T22:13:47.287Z,41.36
2024-04-14T22:16:33.856Z,41.13
2024-04-14T22:19:20.491Z,41.30
2024-04-14T22:22:06.973Z,41.29
2024-04-14T22:24:54.272Z,40.93
2024-04-14T22:27:40.936Z,41.37
2024-04-14T22:30:27.727Z,41.32
2024-04-14T22:33:17.211Z,41.24
2024-04-14T22:36:03.896Z,41.52
2024-04-14T22:38:50.350Z,41.51
2024-04-14T22:41:36.719Z,41.97
2024-04-14T22:44:23.279Z,41.69
2024-04-14T22:47:09.956Z,41.79
2024-04-14T22:49:56.386Z,41.98
2024-04-14T22:52:42.422Z,42.12
2024-04-14T22:55:28.747Z,41.81
2024-04-14T22:58:15.332Z,42.04
2024-04-14T23:01:02.971Z,42.41
2024-04-14T23:03:49.386Z,42.24
2024-04-14T23:06:35.914Z,42.34
2024-04-14T23:09:22.188Z,42.19
2024-04-14T23:12:08.716Z,41.93
2024-04-14T23:14:55.099Z,42.67
2024-04-14T23:17:41.792Z,42.91
2024-04-14T23:20:29.239Z,42.82
2024-04-14T23:23:16.313Z,42.48
2024-04-14T23:26:02.400Z,42.91
2024-04-14T23:28:48.543Z,42.69
2024-04-14T23:31:35.768Z,42.68
2024-04-14T23:34:21.988Z,42.80
2024-04-14T23:37:08.612Z,42.95
2024-04-14T23:39:55.303Z,42.71
2024-04-14T23:42:41.767Z,42.98
2024-04-14T23:45:28.817Z,43.15
2024-04-14T23:48:14.942Z,43.21
2024-04-14T23:51:01.429Z,43.27
2024-04-14T23:53:47.435Z,43.39
2024-04-14T23:56:33.382Z,43.15
2024-04-14T23:59:19.450Z,43.55
